createdAt,value
2022-10-31T00:18:37.764Z,12.4
2022-10-31T00:47:57.230Z,12.2
2022-10-31T01:16:55.307Z,12.1
2022-10-31T01:46:15.409Z,12
2022-10-31T02:15:30.464Z,11.9
2022-10-31T02:44:50.670Z,11.7
2022-10-31T03:14:09.367Z,11.5
2022-10-31T03:44:28.194Z,11.4
2022-10-31T04:13:21.306Z,11.2
2022-10-31T04:42:34.003Z,11.1
2022-10-31T05:11:50.245Z,11
2022-10-31T05:41:13.609Z,11
2022-10-31T06:10:27.817Z,11
2022-10-31T06:39:54.758Z,11.1
2022-10-31T07:09:17.863Z,11.4
2022-10-31T07:38:44.064Z,11.7
2022-10-31T08:08:10.101Z,12.4
2022-10-31T08:37:38.142Z,13.2
2022-10-31T09:07:20.833Z,13.9
2022-10-31T09:35:55.144Z,14.3
2022-10-31T10:05:17.573Z,14.8
2022-10-31T10:34:38.356Z,15.1
2022-10-31T11:03:58.540Z,15.4
2022-10-31T11:33:27.962Z,15.4
2022-10-31T12:02:50.581Z,15.7
2022-10-31T12:32:07.487Z,16.7
2022-10-31T13:01:28.232Z,17.4
2022-10-31T13:30:34.842Z,17.7
2022-10-31T13:59:50.990Z,17.8
2022-10-31T14:29:07.020Z,17.3
2022-10-31T14:58:13.495Z,16.9
2022-10-31T15:27:35.975Z,16.7
2022-10-31T15:56:55.654Z,16.3
2022-10-31T16:25:48.616Z,15.8
2022-10-31T16:55:03.762Z,15.2
2022-10-31T17:24:19.727Z,14.6
2022-10-31T17:53:30.893Z,14.1
2022-10-31T18:22:53.301Z,13.9
2022-10-31T18:52:14.955Z,13.6
2022-10-31T19:21:34.084Z,13.2
2022-10-31T19:50:58.906Z,12.9
2022-10-31T20:19:47.562Z,12.6
2022-10-31T20:49:00.997Z,12.5
2022-10-31T21:18:28.082Z,13.1
2022-10-31T21:47:51.848Z,13.5
2022-10-31T22:17:13.373Z,14.1
2022-10-31T22:46:35.720Z,14
2022-10-31T23:15:55.371Z,14.4
2022-10-31T23:45:20.333Z,14.2
